Time;durP1;ratioP1;P1;durP2;ratioP2;P2;SDS_P1;SDS_P2;PMS_P1;PMS_P2;Temp;Humidity;BMP_temperature;BMP_pressure;BME280_temperature;BME280_humidity;BME280_pressure;Samples;Min_cycle;Max_cycle;Signal;HPM_P1;HPM_P2
2023/08/26 00:01:53;;;;;;;3.92;1.70;;;;;;;;;;5046178;28;20029;-79
2023/08/26 00:04:19;;;;;;;5.55;2.17;;;;;;;;;;5045941;28;20037;-79
2023/08/26 00:06:44;;;;;;;4.32;1.75;;;;;;;;;;5042383;28;20040;-78
2023/08/26 00:09:09;;;;;;;5.38;2.45;;;;;;;;;;5042258;28;20045;-78
2023/08/26 00:11:35;;;;;;;15.18;3.10;;;;;;;;;;5049168;28;20040;-78
2023/08/26 00:14:00;;;;;;;5.88;2.08;;;;;;;;;;5034727;28;20108;-78
2023/08/26 00:16:25;;;;;;;6.07;1.80;;;;;;;;;;5041401;28;20037;-78
2023/08/26 00:18:50;;;;;;;4.10;1.90;;;;;;;;;;5043449;28;20033;-78
2023/08/26 00:21:17;;;;;;;3.67;1.85;;;;;;;;;;5041942;28;20470;-78
2023/08/26 00:23:42;;;;;;;4.47;1.80;;;;;;;;;;5044699;28;20056;-77
2023/08/26 00:26:08;;;;;;;6.68;2.72;;;;;;;;;;5043283;28;20064;-78
2023/08/26 00:28:33;;;;;;;4.22;2.17;;;;;;;;;;5040648;28;20060;-77
2023/08/26 00:30:59;;;;;;;5.97;1.98;;;;;;;;;;5032762;28;20052;-78
2023/08/26 00:33:28;;;;;;;6.22;1.83;;;;;;;;;;5017309;28;20036;-78
2023/08/26 00:35:54;;;;;;;4.63;2.42;;;;;;;;;;5033565;28;20483;-78
2023/08/26 00:38:19;;;;;;;3.67;1.60;;;;;;;;;;5039565;28;20041;-78
2023/08/26 00:40:44;;;;;;;5.93;2.85;;;;;;;;;;5043331;28;20124;-78
2023/08/26 00:43:10;;;;;;;11.05;2.97;;;;;;;;;;5047300;28;20029;-78
2023/08/26 00:45:39;;;;;;;5.47;2.45;;;;;;;;;;5052310;28;20048;-78
2023/08/26 00:48:05;;;;;;;4.60;2.53;;;;;;;;;;5036881;28;20672;-78
2023/08/26 00:50:30;;;;;;;4.43;2.28;;;;;;;;;;5035936;28;20068;-78
2023/08/26 00:52:56;;;;;;;5.32;2.22;;;;;;;;;;5051757;28;20025;-78
2023/08/26 00:55:22;;;;;;;4.50;2.65;;;;;;;;;;5036841;28;20025;-78
2023/08/26 00:57:48;;;;;;;5.03;2.60;;;;;;;;;;5036661;28;20029;-78
2023/08/26 01:00:13;;;;;;;3.70;2.03;;;;;;;;;;5036423;28;20135;-78
2023/08/26 01:02:38;;;;;;;4.75;1.70;;;;;;;;;;5054605;28;20056;-78
2023/08/26 01:05:05;;;;;;;5.00;2.47;;;;;;;;;;5055126;28;20036;-78
2023/08/26 01:07:31;;;;;;;4.00;1.95;;;;;;;;;;5037095;28;20040;-78
2023/08/26 01:09:56;;;;;;;5.18;1.92;;;;;;;;;;5052041;28;20021;-78
2023/08/26 01:12:40;;;;;;;5.90;2.83;;;;;;;;;;5036825;28;20021;-78
2023/08/26 01:15:07;;;;;;;4.80;2.47;;;;;;;;;;5039483;28;20025;-79
2023/08/26 01:17:33;;;;;;;3.13;1.60;;;;;;;;;;5037868;28;20116;-78
2023/08/26 01:19:59;;;;;;;4.97;1.70;;;;;;;;;;5036599;28;20044;-78
2023/08/26 01:22:26;;;;;;;6.55;1.80;;;;;;;;;;5036892;28;20041;-78
2023/08/26 01:24:51;;;;;;;4.30;1.60;;;;;;;;;;5036790;28;20391;-77
2023/08/26 01:27:16;;;;;;;6.45;2.20;;;;;;;;;;5036249;28;20033;-77
2023/08/26 01:29:42;;;;;;;5.20;2.10;;;;;;;;;;5035870;28;20025;-77
2023/08/26 01:32:07;;;;;;;3.25;1.73;;;;;;;;;;5037710;28;20029;-77
2023/08/26 01:34:34;;;;;;;4.25;1.52;;;;;;;;;;5036071;28;20044;-77
2023/08/26 01:37:00;;;;;;;4.78;2.00;;;;;;;;;;5028950;28;20037;-78
2023/08/26 01:39:26;;;;;;;6.80;2.47;;;;;;;;;;5027878;28;20032;-77
2023/08/26 01:41:52;;;;;;;5.75;2.60;;;;;;;;;;5027098;28;20036;-78
2023/08/26 01:44:20;;;;;;;5.53;2.55;;;;;;;;;;5043958;28;20021;-78
2023/08/26 01:46:45;;;;;;;4.10;2.25;;;;;;;;;;5027414;28;20028;-78
2023/08/26 01:49:13;;;;;;;4.40;1.90;;;;;;;;;;5024794;28;20028;-78
2023/08/26 01:51:38;;;;;;;4.35;2.75;;;;;;;;;;5035933;28;20123;-78
2023/08/26 01:54:05;;;;;;;4.32;1.88;;;;;;;;;;5032835;28;20071;-78
2023/08/26 01:56:30;;;;;;;5.65;2.28;;;;;;;;;;5028338;28;20086;-78
2023/08/26 01:58:55;;;;;;;5.20;3.00;;;;;;;;;;5032380;28;20026;-78
2023/08/26 02:01:21;;;;;;;4.97;2.53;;;;;;;;;;5034636;28;20561;-78
2023/08/26 02:03:46;;;;;;;3.35;2.30;;;;;;;;;;5036569;28;20543;-78
2023/08/26 02:06:11;;;;;;;7.18;2.50;;;;;;;;;;5033606;28;20025;-78
2023/08/26 02:08:36;;;;;;;3.25;1.70;;;;;;;;;;5046567;28;20036;-78
2023/08/26 02:11:01;;;;;;;4.43;2.50;;;;;;;;;;5043699;28;20037;-77
2023/08/26 02:13:27;;;;;;;6.50;2.75;;;;;;;;;;5056872;28;20029;-77
2023/08/26 02:15:54;;;;;;;4.47;2.35;;;;;;;;;;5048418;28;20065;-77
2023/08/26 02:18:19;;;;;;;5.18;3.17;;;;;;;;;;5033148;28;20029;-77
2023/08/26 02:20:45;;;;;;;5.38;2.97;;;;;;;;;;5048388;28;20111;-78
2023/08/26 02:23:10;;;;;;;8.07;3.00;;;;;;;;;;5042199;28;20026;-77
2023/08/26 02:25:35;;;;;;;4.45;2.75;;;;;;;;;;5053737;28;20036;-77
2023/08/26 02:28:01;;;;;;;6.25;3.00;;;;;;;;;;5040887;28;20036;-77
2023/08/26 02:30:26;;;;;;;3.70;2.10;;;;;;;;;;5049928;28;20033;-77
2023/08/26 02:32:51;;;;;;;3.47;2.17;;;;;;;;;;5041056;28;20055;-76
2023/08/26 02:35:16;;;;;;;8.77;2.80;;;;;;;;;;5047317;28;20021;-77
2023/08/26 02:37:42;;;;;;;6.22;3.30;;;;;;;;;;5041196;28;20059;-77
2023/08/26 02:40:08;;;;;;;5.70;3.10;;;;;;;;;;5031980;28;20037;-77
2023/08/26 02:42:34;;;;;;;5.10;2.67;;;;;;;;;;5050554;28;20029;-77
2023/08/26 02:44:59;;;;;;;4.65;2.78;;;;;;;;;;5029538;28;20021;-77
2023/08/26 02:47:25;;;;;;;7.60;3.85;;;;;;;;;;5033416;28;20028;-77
2023/08/26 02:49:50;;;;;;;6.40;3.65;;;;;;;;;;5051319;28;20041;-77
2023/08/26 02:52:15;;;;;;;7.68;3.50;;;;;;;;;;5039979;28;20095;-76
2023/08/26 02:54:41;;;;;;;6.40;3.50;;;;;;;;;;5038148;28;20496;-77
2023/08/26 02:57:06;;;;;;;5.80;3.83;;;;;;;;;;5037127;28;20083;-77
2023/08/26 02:59:31;;;;;;;8.73;3.60;;;;;;;;;;5044567;28;20025;-77
2023/08/26 03:02:03;;;;;;;5.20;2.70;;;;;;;;;;5044771;28;20039;-76
2023/08/26 03:04:28;;;;;;;;;;;;;;;;;;5024759;28;20402;-76
2023/08/26 03:06:53;;;;;;;5.82;3.30;;;;;;;;;;5033633;28;20443;-76
2023/08/26 03:09:19;;;;;;;7.53;3.00;;;;;;;;;;5030564;28;20029;-76
2023/08/26 03:11:44;;;;;;;7.18;3.58;;;;;;;;;;5038167;28;20037;-76
2023/08/26 03:14:09;;;;;;;7.70;3.20;;;;;;;;;;5041920;28;20033;-77
2023/08/26 03:16:35;;;;;;;5.80;2.90;;;;;;;;;;5031674;28;20412;-76
2023/08/26 03:19:00;;;;;;;8.48;3.40;;;;;;;;;;5047577;28;20414;-76
2023/08/26 03:21:25;;;;;;;6.47;3.38;;;;;;;;;;5045565;28;20021;-76
2023/08/26 03:23:51;;;;;;;5.07;3.13;;;;;;;;;;5031051;28;20514;-77
2023/08/26 03:26:17;;;;;;;4.38;3.15;;;;;;;;;;5026113;28;20039;-76
2023/08/26 03:28:43;;;;;;;5.78;2.65;;;;;;;;;;5034555;28;20021;-77
2023/08/26 03:31:10;;;;;;;5.75;2.60;;;;;;;;;;5036494;28;20152;-77
2023/08/26 03:33:41;;;;;;;4.80;3.20;;;;;;;;;;5032202;28;20029;-78
2023/08/26 03:36:07;;;;;;;6.82;3.42;;;;;;;;;;5035740;28;20047;-78
2023/08/26 03:38:35;;;;;;;5.28;3.45;;;;;;;;;;5026868;28;20033;-77
2023/08/26 03:41:06;;;;;;;6.50;3.33;;;;;;;;;;5042719;28;20057;-77
2023/08/26 03:43:32;;;;;;;7.88;3.28;;;;;;;;;;5029601;28;20074;-77
2023/08/26 03:45:58;;;;;;;4.82;3.05;;;;;;;;;;5047166;28;20053;-77
2023/08/26 03:48:23;;;;;;;5.68;3.00;;;;;;;;;;5044322;28;20479;-77
2023/08/26 03:50:52;;;;;;;5.68;2.80;;;;;;;;;;5043988;28;20059;-77
2023/08/26 03:53:20;;;;;;;5.25;3.40;;;;;;;;;;5024637;28;20041;-77
2023/08/26 03:55:46;;;;;;;6.50;3.20;;;;;;;;;;5027169;28;20142;-77
2023/08/26 03:58:11;;;;;;;5.18;2.97;;;;;;;;;;5047288;28;20104;-77
2023/08/26 04:00:37;;;;;;;5.43;3.08;;;;;;;;;;5023817;28;20032;-77
2023/08/26 04:03:08;;;;;;;;;;;;;;;;;;5043482;28;20061;-77
2023/08/26 04:05:33;;;;;;;5.97;4.00;;;;;;;;;;5035618;28;19916;-77
2023/08/26 04:07:59;;;;;;;5.18;3.42;;;;;;;;;;5034156;28;20045;-78
2023/08/26 04:10:24;;;;;;;7.45;3.55;;;;;;;;;;5031955;28;20044;-77
2023/08/26 04:12:50;;;;;;;5.20;3.92;;;;;;;;;;5036810;28;20029;-77
2023/08/26 04:15:15;;;;;;;6.78;3.95;;;;;;;;;;5034075;28;20120;-77
2023/08/26 04:17:41;;;;;;;5.38;4.13;;;;;;;;;;5038937;28;20037;-77
2023/08/26 04:20:07;;;;;;;7.57;4.18;;;;;;;;;;5049361;28;20040;-77
2023/08/26 04:22:32;;;;;;;9.02;5.43;;;;;;;;;;5030602;28;20045;-76
2023/08/26 04:24:57;;;;;;;9.43;4.80;;;;;;;;;;5041591;28;20017;-76
2023/08/26 04:27:22;;;;;;;7.97;4.72;;;;;;;;;;5043316;28;20107;-77
2023/08/26 04:29:48;;;;;;;6.45;4.13;;;;;;;;;;5049731;28;20052;-76
2023/08/26 04:32:13;;;;;;;9.25;4.50;;;;;;;;;;5036447;28;20459;-76
2023/08/26 04:34:38;;;;;;;7.70;4.10;;;;;;;;;;5046540;28;20403;-76
2023/08/26 04:37:03;;;;;;;7.32;4.68;;;;;;;;;;5036517;28;20033;-76
2023/08/26 04:39:29;;;;;;;5.60;4.45;;;;;;;;;;5049097;28;20127;-77
2023/08/26 04:41:54;;;;;;;7.35;3.85;;;;;;;;;;5047368;28;20040;-76
2023/08/26 04:44:20;;;;;;;6.88;4.65;;;;;;;;;;5042982;28;20037;-77
2023/08/26 04:46:45;;;;;;;6.85;4.38;;;;;;;;;;5037960;28;20637;-77
2023/08/26 04:49:10;;;;;;;7.25;4.85;;;;;;;;;;5055482;28;20026;-76
2023/08/26 04:51:37;;;;;;;5.80;3.90;;;;;;;;;;5044320;28;20517;-76
2023/08/26 04:54:03;;;;;;;7.00;4.63;;;;;;;;;;5039773;28;20029;-76
2023/08/26 04:56:28;;;;;;;7.25;4.88;;;;;;;;;;5052663;28;20043;-76
2023/08/26 04:58:53;;;;;;;7.85;4.30;;;;;;;;;;5033428;28;20030;-76
2023/08/26 05:01:18;;;;;;;6.93;5.10;;;;;;;;;;5035857;28;20089;-76
2023/08/26 05:03:44;;;;;;;11.85;5.45;;;;;;;;;;5027221;28;20029;-77
2023/08/26 05:06:09;;;;;;;8.23;4.88;;;;;;;;;;5045691;28;20037;-76
2023/08/26 05:08:34;;;;;;;6.72;4.50;;;;;;;;;;5043607;28;20029;-75
2023/08/26 05:10:59;;;;;;;7.68;5.25;;;;;;;;;;5035344;28;20056;-77
2023/08/26 05:13:24;;;;;;;10.65;5.03;;;;;;;;;;5035201;28;20033;-76
2023/08/26 05:15:50;;;;;;;7.47;4.50;;;;;;;;;;5036711;28;20039;-77
2023/08/26 05:18:16;;;;;;;6.63;4.35;;;;;;;;;;5015639;28;20115;-77
2023/08/26 05:20:47;;;;;;;7.28;4.75;;;;;;;;;;5033073;28;20071;-77
2023/08/26 05:23:14;;;;;;;7.68;5.55;;;;;;;;;;5035976;28;20079;-77
2023/08/26 05:25:40;;;;;;;7.28;5.18;;;;;;;;;;5015593;28;20093;-77
2023/08/26 05:28:05;;;;;;;8.55;5.43;;;;;;;;;;5032278;28;20029;-77
2023/08/26 05:30:31;;;;;;;8.43;4.90;;;;;;;;;;5034249;28;20055;-77
2023/08/26 05:32:56;;;;;;;8.25;5.07;;;;;;;;;;5031325;28;20433;-77
2023/08/26 05:35:22;;;;;;;8.82;5.53;;;;;;;;;;5026661;28;20071;-77
2023/08/26 05:37:48;;;;;;;8.90;5.80;;;;;;;;;;5032571;28;20084;-77
2023/08/26 05:40:16;;;;;;;9.25;5.80;;;;;;;;;;5029358;28;20036;-77
2023/08/26 05:42:41;;;;;;;8.98;5.60;;;;;;;;;;5029197;28;20116;-77
2023/08/26 05:45:07;;;;;;;9.65;5.78;;;;;;;;;;5038064;28;20021;-77
2023/08/26 05:47:33;;;;;;;7.82;5.93;;;;;;;;;;5018572;28;20521;-77
2023/08/26 05:49:58;;;;;;;8.88;5.32;;;;;;;;;;5043010;28;20100;-77
2023/08/26 05:52:24;;;;;;;8.05;5.05;;;;;;;;;;5043799;28;20057;-77
2023/08/26 05:54:49;;;;;;;8.60;5.35;;;;;;;;;;5037049;28;20159;-77
2023/08/26 05:57:15;;;;;;;9.02;6.30;;;;;;;;;;5035839;28;20029;-78
2023/08/26 05:59:40;;;;;;;7.97;6.22;;;;;;;;;;5037438;28;20029;-78
2023/08/26 06:02:05;;;;;;;7.78;4.70;;;;;;;;;;5040831;28;20025;-78
2023/08/26 06:04:31;;;;;;;9.13;6.10;;;;;;;;;;5040050;28;20037;-77
2023/08/26 06:06:57;;;;;;;9.30;5.38;;;;;;;;;;5035910;28;20033;-77
2023/08/26 06:09:23;;;;;;;6.35;4.60;;;;;;;;;;5024337;28;20112;-77
2023/08/26 06:11:48;;;;;;;8.02;4.78;;;;;;;;;;5041703;28;20528;-78
2023/08/26 06:14:13;;;;;;;6.63;5.40;;;;;;;;;;5035146;28;20069;-77
2023/08/26 06:16:38;;;;;;;7.13;4.82;;;;;;;;;;5015871;28;20053;-77
2023/08/26 06:19:04;;;;;;;7.82;4.60;;;;;;;;;;5034900;28;20029;-77
2023/08/26 06:21:29;;;;;;;7.55;4.40;;;;;;;;;;5032005;28;20037;-77
2023/08/26 06:23:54;;;;;;;8.97;4.53;;;;;;;;;;5035185;28;20068;-77
2023/08/26 06:26:20;;;;;;;5.63;4.15;;;;;;;;;;5034960;28;20433;-77
2023/08/26 06:28:45;;;;;;;5.20;3.53;;;;;;;;;;5031334;28;20025;-77
2023/08/26 06:31:12;;;;;;;4.53;3.13;;;;;;;;;;5035889;28;20039;-77
2023/08/26 06:33:41;;;;;;;5.35;3.30;;;;;;;;;;5030915;28;20056;-77
2023/08/26 06:36:08;;;;;;;5.45;2.92;;;;;;;;;;5035274;28;20056;-77
2023/08/26 06:38:33;;;;;;;4.63;2.47;;;;;;;;;;5033975;28;20505;-77
2023/08/26 06:40:59;;;;;;;4.95;2.88;;;;;;;;;;5043211;28;20112;-77
2023/08/26 06:43:24;;;;;;;5.65;3.22;;;;;;;;;;5040928;28;20056;-77
2023/08/26 06:45:49;;;;;;;4.72;3.05;;;;;;;;;;5035502;28;20043;-77
2023/08/26 06:48:15;;;;;;;4.90;3.17;;;;;;;;;;5032716;28;20108;-77
2023/08/26 06:50:41;;;;;;;5.63;3.05;;;;;;;;;;5026386;28;20043;-78
2023/08/26 06:53:07;;;;;;;6.10;3.22;;;;;;;;;;5024767;28;20075;-78
2023/08/26 06:55:33;;;;;;;4.47;2.85;;;;;;;;;;5036260;28;20435;-77
2023/08/26 06:57:58;;;;;;;4.10;3.10;;;;;;;;;;5052738;28;20107;-77
2023/08/26 07:00:24;;;;;;;5.38;3.08;;;;;;;;;;5032499;28;20635;-78
2023/08/26 07:02:49;;;;;;;4.73;2.93;;;;;;;;;;5047878;28;20056;-78
2023/08/26 07:05:14;;;;;;;5.57;3.20;;;;;;;;;;5045296;28;20817;-77
2023/08/26 07:07:40;;;;;;;5.60;2.95;;;;;;;;;;5052213;28;20033;-77
2023/08/26 07:10:05;;;;;;;4.22;3.28;;;;;;;;;;5042657;28;20051;-77
2023/08/26 07:12:31;;;;;;;4.53;2.70;;;;;;;;;;5049611;28;20052;-78
2023/08/26 07:14:56;;;;;;;6.15;3.13;;;;;;;;;;5049139;28;20057;-78
2023/08/26 07:17:21;;;;;;;6.13;2.70;;;;;;;;;;5048881;28;20037;-78
2023/08/26 07:19:46;;;;;;;6.95;3.10;;;;;;;;;;5046270;28;20025;-79
2023/08/26 07:22:11;;;;;;;5.18;3.33;;;;;;;;;;5047637;28;20029;-79
2023/08/26 07:24:37;;;;;;;5.75;3.08;;;;;;;;;;5042951;28;20132;-78
2023/08/26 07:27:02;;;;;;;4.13;2.85;;;;;;;;;;5047435;28;20380;-76
2023/08/26 07:29:30;;;;;;;4.18;2.95;;;;;;;;;;5024762;28;20052;-76
2023/08/26 07:31:55;;;;;;;5.85;3.22;;;;;;;;;;5046604;28;20071;-76
2023/08/26 07:34:21;;;;;;;6.93;3.17;;;;;;;;;;5043058;28;20041;-76
2023/08/26 07:36:46;;;;;;;4.43;3.38;;;;;;;;;;5047264;28;20486;-76
2023/08/26 07:39:11;;;;;;;5.30;3.40;;;;;;;;;;5041470;28;20064;-76
2023/08/26 07:41:36;;;;;;;4.50;2.97;;;;;;;;;;5040089;28;20287;-76
2023/08/26 07:44:03;;;;;;;4.75;2.72;;;;;;;;;;5043110;28;20773;-77
2023/08/26 07:46:28;;;;;;;5.63;3.75;;;;;;;;;;5046206;28;20031;-77
2023/08/26 07:48:53;;;;;;;6.57;3.65;;;;;;;;;;5043407;28;20031;-76
2023/08/26 07:51:18;;;;;;;5.63;3.37;;;;;;;;;;5044965;28;20029;-76
2023/08/26 07:53:44;;;;;;;5.32;3.17;;;;;;;;;;5048766;28;20271;-76
2023/08/26 07:56:09;;;;;;;5.72;3.63;;;;;;;;;;5048145;28;20087;-75
2023/08/26 07:58:35;;;;;;;7.82;3.60;;;;;;;;;;5050267;28;20553;-76
2023/08/26 08:01:00;;;;;;;6.78;3.50;;;;;;;;;;5048353;28;20040;-76
2023/08/26 08:03:25;;;;;;;5.57;3.05;;;;;;;;;;5046996;28;20483;-76
2023/08/26 08:05:50;;;;;;;7.60;3.63;;;;;;;;;;5049353;28;20063;-76
2023/08/26 08:08:15;;;;;;;5.10;2.95;;;;;;;;;;5053109;28;20267;-75
2023/08/26 08:10:41;;;;;;;7.40;3.67;;;;;;;;;;5045030;28;20045;-76
2023/08/26 08:13:08;;;;;;;4.53;2.93;;;;;;;;;;5046079;28;20045;-77
2023/08/26 08:15:33;;;;;;;4.38;3.00;;;;;;;;;;5039946;28;20283;-76
2023/08/26 08:17:58;;;;;;;6.63;3.63;;;;;;;;;;5049731;28;20034;-76
2023/08/26 08:20:23;;;;;;;5.80;3.00;;;;;;;;;;5049497;28;20283;-76
2023/08/26 08:22:48;;;;;;;5.30;3.00;;;;;;;;;;5050839;28;20730;-76
2023/08/26 08:25:14;;;;;;;5.53;2.85;;;;;;;;;;5046428;28;20329;-76
2023/08/26 08:27:40;;;;;;;6.55;3.45;;;;;;;;;;5054020;28;20027;-76
2023/08/26 08:30:06;;;;;;;5.78;3.53;;;;;;;;;;5046380;28;20477;-76
2023/08/26 08:32:32;;;;;;;5.63;3.33;;;;;;;;;;5050836;28;20039;-76
2023/08/26 08:34:58;;;;;;;6.00;2.97;;;;;;;;;;5047703;28;20036;-76
2023/08/26 08:37:23;;;;;;;5.22;2.97;;;;;;;;;;5052740;28;20025;-76
2023/08/26 08:39:48;;;;;;;6.78;3.13;;;;;;;;;;5051159;28;20021;-76
2023/08/26 08:42:14;;;;;;;4.97;2.90;;;;;;;;;;5046346;28;20500;-76
2023/08/26 08:44:43;;;;;;;6.60;3.20;;;;;;;;;;5048220;28;20267;-76
2023/08/26 08:47:08;;;;;;;4.90;2.97;;;;;;;;;;5050329;28;20377;-75
2023/08/26 08:49:34;;;;;;;5.60;2.90;;;;;;;;;;5049910;28;20079;-76
2023/08/26 08:52:01;;;;;;;11.63;4.18;;;;;;;;;;5030514;28;20028;-76
2023/08/26 08:54:27;;;;;;;5.32;3.10;;;;;;;;;;5049620;28;20564;-75
2023/08/26 08:56:52;;;;;;;5.00;3.05;;;;;;;;;;5051513;28;20025;-76
2023/08/26 08:59:19;;;;;;;4.05;2.63;;;;;;;;;;5053013;28;20029;-76
2023/08/26 09:01:44;;;;;;;4.95;2.80;;;;;;;;;;5048300;28;20036;-76
2023/08/26 09:04:09;;;;;;;5.77;2.73;;;;;;;;;;5050507;28;20395;-78
2023/08/26 09:06:34;;;;;;;5.32;3.17;;;;;;;;;;5036941;28;20761;-79
2023/08/26 09:09:00;;;;;;;6.70;3.28;;;;;;;;;;5050589;28;20029;-78
2023/08/26 09:11:27;;;;;;;5.78;2.40;;;;;;;;;;5046507;28;20033;-78
2023/08/26 09:13:52;;;;;;;5.40;3.05;;;;;;;;;;5029512;28;20037;-79
2023/08/26 09:16:26;;;;;;;5.57;2.67;;;;;;;;;;5050325;28;20092;-78
2023/08/26 09:18:55;;;;;;;4.55;2.75;;;;;;;;;;5034106;28;20060;-79
2023/08/26 09:21:20;;;;;;;5.03;2.65;;;;;;;;;;5049903;28;20120;-79
2023/08/26 09:23:47;;;;;;;5.30;2.50;;;;;;;;;;5039893;28;20048;-79
2023/08/26 09:26:14;;;;;;;5.43;2.53;;;;;;;;;;5029643;28;20036;-79
2023/08/26 09:28:46;;;;;;;4.82;2.60;;;;;;;;;;5038376;28;20432;-78
2023/08/26 09:31:11;;;;;;;4.30;2.75;;;;;;;;;;5045616;28;20073;-79
2023/08/26 09:33:36;;;;;;;5.07;2.53;;;;;;;;;;5051355;28;20036;-78
2023/08/26 09:36:02;;;;;;;4.60;2.13;;;;;;;;;;5048182;28;20327;-78
2023/08/26 09:38:31;;;;;;;5.65;2.25;;;;;;;;;;5050038;28;20033;-78
2023/08/26 09:40:57;;;;;;;4.85;2.47;;;;;;;;;;5048034;28;20033;-78
2023/08/26 09:43:22;;;;;;;4.30;2.63;;;;;;;;;;5055924;28;20089;-77
2023/08/26 09:45:47;;;;;;;4.55;1.90;;;;;;;;;;5053518;28;20049;-78
2023/08/26 09:48:19;;;;;;;4.80;1.80;;;;;;;;;;5045905;28;20033;-78
2023/08/26 09:50:45;;;;;;;3.28;1.25;;;;;;;;;;5043663;28;20029;-79
2023/08/26 09:53:10;;;;;;;2.22;1.00;;;;;;;;;;5064503;28;20043;-77
2023/08/26 09:55:38;;;;;;;3.72;1.15;;;;;;;;;;5054154;28;20105;-78
2023/08/26 09:58:03;;;;;;;1.40;0.60;;;;;;;;;;5057601;28;20025;-77
2023/08/26 10:00:29;;;;;;;1.83;0.77;;;;;;;;;;5036864;28;20483;-77
2023/08/26 10:02:58;;;;;;;1.83;0.63;;;;;;;;;;5052614;28;20045;-77
2023/08/26 10:05:26;;;;;;;3.20;0.90;;;;;;;;;;5055452;28;20048;-77
2023/08/26 10:07:51;;;;;;;0.88;0.50;;;;;;;;;;5043473;28;20124;-77
2023/08/26 10:10:37;;;;;;;1.98;0.82;;;;;;;;;;5047089;28;20063;-77
2023/08/26 10:13:04;;;;;;;2.03;0.95;;;;;;;;;;5054463;28;20029;-77
2023/08/26 10:15:32;;;;;;;1.98;1.05;;;;;;;;;;5053994;28;20032;-77
2023/08/26 10:17:59;;;;;;;2.35;1.10;;;;;;;;;;5037402;28;20033;-77
2023/08/26 10:20:25;;;;;;;4.60;1.40;;;;;;;;;;5053658;28;20108;-77
2023/08/26 10:22:50;;;;;;;4.05;1.70;;;;;;;;;;5052461;28;20072;-77
2023/08/26 10:25:16;;;;;;;3.10;1.75;;;;;;;;;;5051474;28;20040;-77
2023/08/26 10:27:42;;;;;;;5.57;2.42;;;;;;;;;;5051495;28;20043;-77
2023/08/26 10:30:07;;;;;;;4.18;1.92;;;;;;;;;;5056392;28;20025;-78
2023/08/26 10:32:39;;;;;;;3.22;1.85;;;;;;;;;;5056883;28;20419;-77
2023/08/26 10:35:09;;;;;;;5.07;2.38;;;;;;;;;;5059697;28;20082;-77
2023/08/26 10:37:34;;;;;;;5.00;2.28;;;;;;;;;;5057856;28;20094;-77
2023/08/26 10:40:08;;;;;;;3.37;2.30;;;;;;;;;;5053634;28;20466;-77
2023/08/26 10:42:34;;;;;;;4.75;2.85;;;;;;;;;;5038750;28;20315;-77
2023/08/26 10:45:01;;;;;;;4.95;2.72;;;;;;;;;;5055102;28;20017;-77
2023/08/26 10:47:40;;;;;;;6.57;3.05;;;;;;;;;;5035094;28;20571;-76
2023/08/26 10:50:12;;;;;;;5.78;2.75;;;;;;;;;;5051596;28;20033;-77
2023/08/26 10:52:37;;;;;;;4.82;2.70;;;;;;;;;;5045024;28;20029;-77
2023/08/26 10:55:10;;;;;;;5.27;2.70;;;;;;;;;;5046330;28;20074;-77
2023/08/26 10:57:36;;;;;;;5.30;2.70;;;;;;;;;;5047031;28;20272;-77
2023/08/26 11:00:07;;;;;;;5.80;2.97;;;;;;;;;;5034644;28;20090;-77
2023/08/26 11:02:33;;;;;;;4.78;2.92;;;;;;;;;;5044471;28;20283;-76
2023/08/26 11:04:59;;;;;;;6.35;3.20;;;;;;;;;;5042715;28;20512;-77
2023/08/26 11:07:26;;;;;;;6.72;3.22;;;;;;;;;;5048951;28;20036;-77
2023/08/26 11:09:51;;;;;;;5.57;2.90;;;;;;;;;;5030227;28;20029;-77
2023/08/26 11:12:26;;;;;;;6.40;2.93;;;;;;;;;;5046825;28;20025;-77
2023/08/26 11:14:52;;;;;;;8.52;2.88;;;;;;;;;;5027952;28;20276;-76
2023/08/26 11:17:17;;;;;;;8.27;2.60;;;;;;;;;;5051584;28;20112;-77
2023/08/26 11:19:43;;;;;;;5.72;3.45;;;;;;;;;;5052184;28;20508;-77
2023/08/26 11:22:08;;;;;;;7.00;3.20;;;;;;;;;;5045626;28;20041;-77
2023/08/26 11:24:33;;;;;;;5.93;3.10;;;;;;;;;;5042566;28;20029;-76
2023/08/26 11:27:00;;;;;;;5.32;3.05;;;;;;;;;;5043985;28;20356;-77
2023/08/26 11:29:25;;;;;;;7.70;3.00;;;;;;;;;;5048629;28;20127;-77
2023/08/26 11:31:51;;;;;;;7.90;3.13;;;;;;;;;;5033653;28;20049;-77
2023/08/26 11:34:20;;;;;;;4.60;2.40;;;;;;;;;;5049185;28;20116;-77
2023/08/26 11:36:45;;;;;;;4.88;2.22;;;;;;;;;;5030851;28;20353;-77
2023/08/26 11:39:17;;;;;;;6.35;2.53;;;;;;;;;;5036018;28;20037;-76
2023/08/26 11:41:42;;;;;;;6.85;2.60;;;;;;;;;;5042730;28;20563;-76
2023/08/26 11:44:13;;;;;;;6.30;2.70;;;;;;;;;;5048441;28;20104;-76
2023/08/26 11:46:38;;;;;;;6.72;2.35;;;;;;;;;;5041478;28;20334;-76
2023/08/26 11:49:04;;;;;;;5.70;2.45;;;;;;;;;;5038416;28;20065;-77
2023/08/26 11:51:29;;;;;;;3.83;2.00;;;;;;;;;;5043979;28;20040;-76
2023/08/26 11:53:54;;;;;;;7.60;2.67;;;;;;;;;;5039406;28;20025;-76
2023/08/26 11:56:19;;;;;;;5.73;2.13;;;;;;;;;;5045162;28;20439;-76
2023/08/26 11:58:45;;;;;;;5.68;2.53;;;;;;;;;;5043260;28;20033;-76
2023/08/26 12:01:12;;;;;;;5.43;2.07;;;;;;;;;;5045861;28;20029;-76
2023/08/26 12:03:41;;;;;;;6.25;2.00;;;;;;;;;;5041416;28;20271;-76
2023/08/26 12:06:07;;;;;;;5.65;1.77;;;;;;;;;;5040265;28;20029;-76
2023/08/26 12:08:33;;;;;;;5.85;1.80;;;;;;;;;;5047864;28;20040;-76
2023/08/26 12:10:58;;;;;;;7.15;2.00;;;;;;;;;;5046025;28;20033;-76
2023/08/26 12:13:35;;;;;;;6.55;2.03;;;;;;;;;;5046347;28;20029;-76
2023/08/26 12:16:00;;;;;;;6.50;2.00;;;;;;;;;;5042870;28;20037;-76
2023/08/26 12:18:26;;;;;;;8.53;2.20;;;;;;;;;;5046605;28;20029;-76
2023/08/26 12:20:54;;;;;;;5.03;2.42;;;;;;;;;;5004362;28;20296;-76
2023/08/26 12:23:21;;;;;;;5.90;1.80;;;;;;;;;;5042042;28;20052;-76
2023/08/26 12:25:46;;;;;;;6.85;1.70;;;;;;;;;;5044813;28;20114;-76
2023/08/26 12:28:13;;;;;;;7.72;2.50;;;;;;;;;;5040030;28;20080;-76
2023/08/26 12:30:40;;;;;;;4.72;2.13;;;;;;;;;;5041986;28;20082;-76
2023/08/26 12:33:06;;;;;;;7.05;2.22;;;;;;;;;;5041005;28;20107;-76
2023/08/26 12:35:35;;;;;;;6.55;1.90;;;;;;;;;;5031480;28;20598;-76
2023/08/26 12:38:02;;;;;;;5.97;2.00;;;;;;;;;;5043877;28;20499;-76
2023/08/26 12:40:28;;;;;;;7.93;2.03;;;;;;;;;;5031272;28;20964;-76
2023/08/26 12:42:54;;;;;;;5.50;2.20;;;;;;;;;;5045260;28;20029;-76
2023/08/26 12:45:19;;;;;;;5.57;2.00;;;;;;;;;;5050111;28;20017;-76
2023/08/26 12:47:44;;;;;;;5.50;2.33;;;;;;;;;;5044853;28;20480;-76
2023/08/26 12:50:09;;;;;;;5.70;2.37;;;;;;;;;;5045902;28;20049;-76
2023/08/26 12:52:34;;;;;;;6.43;2.00;;;;;;;;;;5045536;28;20279;-76
2023/08/26 12:55:00;;;;;;;6.97;2.27;;;;;;;;;;5042956;28;20036;-76
2023/08/26 12:57:25;;;;;;;8.40;2.10;;;;;;;;;;5036330;28;20358;-76
2023/08/26 12:59:50;;;;;;;8.63;2.30;;;;;;;;;;5042085;28;20044;-76
2023/08/26 13:02:15;;;;;;;5.05;2.00;;;;;;;;;;5045769;28;20037;-76
2023/08/26 13:04:41;;;;;;;5.63;2.03;;;;;;;;;;5045464;28;20072;-76
2023/08/26 13:07:07;;;;;;;4.93;2.10;;;;;;;;;;5032680;28;20030;-76
2023/08/26 13:09:32;;;;;;;6.30;2.03;;;;;;;;;;5044936;28;20029;-76
2023/08/26 13:11:57;;;;;;;5.53;2.00;;;;;;;;;;5029243;28;20029;-76
2023/08/26 13:14:22;;;;;;;6.33;1.87;;;;;;;;;;5045950;28;20033;-76
2023/08/26 13:16:47;;;;;;;6.73;2.30;;;;;;;;;;5045580;28;20395;-76
2023/08/26 13:19:13;;;;;;;4.67;1.90;;;;;;;;;;5041324;28;20032;-76
2023/08/26 13:21:38;;;;;;;7.82;2.65;;;;;;;;;;5046351;28;20283;-76
2023/08/26 13:24:04;;;;;;;6.07;2.10;;;;;;;;;;5034545;28;20104;-76
2023/08/26 13:26:29;;;;;;;4.57;1.77;;;;;;;;;;5024299;28;20030;-76
2023/08/26 13:28:54;;;;;;;4.53;2.00;;;;;;;;;;5034838;28;20029;-76
2023/08/26 13:31:19;;;;;;;4.63;1.73;;;;;;;;;;5032869;28;20036;-75
2023/08/26 13:33:45;;;;;;;6.45;2.08;;;;;;;;;;5045345;28;20146;-76
2023/08/26 13:36:10;;;;;;;5.87;2.07;;;;;;;;;;5041691;28;20116;-76
2023/08/26 13:38:35;;;;;;;8.05;2.22;;;;;;;;;;5047447;28;20155;-76
2023/08/26 13:41:00;;;;;;;5.85;2.38;;;;;;;;;;5023954;28;20033;-76
2023/08/26 13:43:26;;;;;;;4.20;1.90;;;;;;;;;;5045500;28;20472;-76
2023/08/26 13:45:51;;;;;;;4.50;1.90;;;;;;;;;;5041900;28;20747;-76
2023/08/26 13:48:16;;;;;;;6.72;2.08;;;;;;;;;;5025982;28;20032;-76
2023/08/26 13:50:42;;;;;;;6.15;2.05;;;;;;;;;;5034590;28;20040;-76
2023/08/26 13:53:07;;;;;;;6.17;1.90;;;;;;;;;;5044289;28;20036;-76
2023/08/26 13:55:32;;;;;;;4.07;1.77;;;;;;;;;;5041719;28;20294;-76
2023/08/26 13:57:57;;;;;;;8.47;2.83;;;;;;;;;;5044117;28;20036;-76
2023/08/26 14:00:22;;;;;;;5.27;1.83;;;;;;;;;;5041021;28;20295;-76
2023/08/26 14:02:48;;;;;;;5.23;2.40;;;;;;;;;;5046145;28;20036;-76
2023/08/26 14:05:13;;;;;;;6.03;1.83;;;;;;;;;;5041726;28;20025;-76
2023/08/26 14:07:39;;;;;;;6.87;1.93;;;;;;;;;;5043873;28;20761;-76
2023/08/26 14:10:04;;;;;;;5.32;2.35;;;;;;;;;;5037499;28;20284;-76
2023/08/26 14:12:30;;;;;;;4.10;2.13;;;;;;;;;;5043398;28;20099;-76
2023/08/26 14:14:55;;;;;;;6.13;2.50;;;;;;;;;;5044554;28;20087;-76
2023/08/26 14:17:20;;;;;;;4.95;1.90;;;;;;;;;;5042114;28;20280;-76
2023/08/26 14:19:45;;;;;;;5.17;2.10;;;;;;;;;;5042468;28;20040;-76
2023/08/26 14:22:11;;;;;;;5.90;2.10;;;;;;;;;;5041883;28;20308;-76
2023/08/26 14:24:36;;;;;;;5.73;1.73;;;;;;;;;;5044451;28;20032;-76
2023/08/26 14:27:01;;;;;;;6.40;2.40;;;;;;;;;;5043742;28;20271;-76
2023/08/26 14:29:26;;;;;;;6.33;1.90;;;;;;;;;;5041697;28;20021;-76
2023/08/26 14:31:52;;;;;;;5.47;2.10;;;;;;;;;;5046803;28;20271;-76
2023/08/26 14:34:17;;;;;;;4.25;2.03;;;;;;;;;;5044837;28;20276;-76
2023/08/26 14:36:42;;;;;;;5.28;1.88;;;;;;;;;;5034053;28;20836;-76